sensor_id;sensor_type;location;lat;lon;timestamp;P1;durP1;ratioP1;P2;durP2;ratioP2
50709;SDS011;37033;49.994;21.992;2022-09-13T00:00:55;6.20;;;4.70;;
50709;SDS011;37033;49.994;21.992;2022-09-13T00:03:45;4.30;;;3.90;;
50709;SDS011;37033;49.994;21.992;2022-09-13T00:06:36;4.50;;;4.10;;
50709;SDS011;37033;49.994;21.992;2022-09-13T00:09:27;3.90;;;3.50;;
50709;SDS011;37033;49.994;21.992;2022-09-13T00:12:17;4.50;;;4.00;;
50709;SDS011;37033;49.994;21.992;2022-09-13T00:15:08;5.00;;;4.20;;
50709;SDS011;37033;49.994;21.992;2022-09-13T00:17:59;4.90;;;4.00;;
50709;SDS011;37033;49.994;21.992;2022-09-13T00:20:49;5.60;;;4.30;;
50709;SDS011;37033;49.994;21.992;2022-09-13T00:23:52;4.10;;;3.50;;
50709;SDS011;37033;49.994;21.992;2022-09-13T00:26:43;5.00;;;3.70;;
50709;SDS011;37033;49.994;21.992;2022-09-13T00:29:33;4.70;;;3.90;;
50709;SDS011;37033;49.994;21.992;2022-09-13T00:32:23;4.00;;;3.60;;
50709;SDS011;37033;49.994;21.992;2022-09-13T00:35:14;4.60;;;3.70;;
50709;SDS011;37033;49.994;21.992;2022-09-13T00:38:05;4.00;;;3.60;;
50709;SDS011;37033;49.994;21.992;2022-09-13T00:40:55;4.60;;;3.90;;
50709;SDS011;37033;49.994;21.992;2022-09-13T00:43:47;4.30;;;3.60;;
50709;SDS011;37033;49.994;21.992;2022-09-13T00:46:40;7.00;;;4.00;;
50709;SDS011;37033;49.994;21.992;2022-09-13T00:49:34;4.10;;;3.70;;
50709;SDS011;37033;49.994;21.992;2022-09-13T00:52:27;3.80;;;3.30;;
50709;SDS011;37033;49.994;21.992;2022-09-13T00:55:20;5.30;;;3.90;;
50709;SDS011;37033;49.994;21.992;2022-09-13T00:58:17;7.30;;;4.60;;
50709;SDS011;37033;49.994;21.992;2022-09-13T01:01:12;6.20;;;4.80;;
50709;SDS011;37033;49.994;21.992;2022-09-13T01:04:03;4.80;;;4.40;;
50709;SDS011;37033;49.994;21.992;2022-09-13T01:06:55;8.60;;;5.30;;
50709;SDS011;37033;49.994;21.992;2022-09-13T01:09:49;5.10;;;4.60;;
50709;SDS011;37033;49.994;21.992;2022-09-13T01:12:42;5.20;;;4.70;;
50709;SDS011;37033;49.994;21.992;2022-09-13T01:15:37;5.20;;;4.70;;
50709;SDS011;37033;49.994;21.992;2022-09-13T01:18:28;9.30;;;5.00;;
50709;SDS011;37033;49.994;21.992;2022-09-13T01:21:35;6.50;;;5.10;;
50709;SDS011;37033;49.994;21.992;2022-09-13T01:24:55;5.40;;;4.90;;
50709;SDS011;37033;49.994;21.992;2022-09-13T01:28:07;5.60;;;4.70;;
50709;SDS011;37033;49.994;21.992;2022-09-13T01:31:06;7.20;;;4.70;;
50709;SDS011;37033;49.994;21.992;2022-09-13T01:34:07;5.10;;;4.60;;
50709;SDS011;37033;49.994;21.992;2022-09-13T01:37:18;5.80;;;5.10;;
50709;SDS011;37033;49.994;21.992;2022-09-13T01:40:25;6.40;;;5.30;;
50709;SDS011;37033;49.994;21.992;2022-09-13T01:43:30;5.80;;;5.20;;
50709;SDS011;37033;49.994;21.992;2022-09-13T01:46:27;6.10;;;5.00;;
50709;SDS011;37033;49.994;21.992;2022-09-13T01:49:24;7.50;;;5.40;;
50709;SDS011;37033;49.994;21.992;2022-09-13T01:52:23;5.10;;;4.70;;
50709;SDS011;37033;49.994;21.992;2022-09-13T01:55:19;5.90;;;5.20;;
50709;SDS011;37033;49.994;21.992;2022-09-13T01:58:18;5.90;;;5.40;;
50709;SDS011;37033;49.994;21.992;2022-09-13T02:01:12;5.80;;;5.30;;
50709;SDS011;37033;49.994;21.992;2022-09-13T02:04:09;5.60;;;5.10;;
50709;SDS011;37033;49.994;21.992;2022-09-13T02:07:03;8.40;;;5.20;;
50709;SDS011;37033;49.994;21.992;2022-09-13T02:10:02;5.90;;;4.80;;
50709;SDS011;37033;49.994;21.992;2022-09-13T02:12:55;5.90;;;5.20;;
50709;SDS011;37033;49.994;21.992;2022-09-13T02:15:47;6.20;;;5.40;;
50709;SDS011;37033;49.994;21.992;2022-09-13T02:18:44;6.30;;;5.70;;
50709;SDS011;37033;49.994;21.992;2022-09-13T02:21:40;6.20;;;5.60;;
50709;SDS011;37033;49.994;21.992;2022-09-13T02:24:36;7.00;;;6.10;;
50709;SDS011;37033;49.994;21.992;2022-09-13T02:27:31;6.30;;;5.60;;
50709;SDS011;37033;49.994;21.992;2022-09-13T02:30:24;8.10;;;6.30;;
50709;SDS011;37033;49.994;21.992;2022-09-13T02:33:16;7.40;;;5.70;;
50709;SDS011;37033;49.994;21.992;2022-09-13T02:36:11;6.60;;;5.70;;
50709;SDS011;37033;49.994;21.992;2022-09-13T02:39:05;6.80;;;6.10;;
50709;SDS011;37033;49.994;21.992;2022-09-13T02:42:02;8.80;;;6.10;;
50709;SDS011;37033;49.994;21.992;2022-09-13T02:44:56;6.70;;;5.70;;
50709;SDS011;37033;49.994;21.992;2022-09-13T02:47:48;8.80;;;6.50;;
50709;SDS011;37033;49.994;21.992;2022-09-13T02:50:48;6.40;;;5.90;;
50709;SDS011;37033;49.994;21.992;2022-09-13T02:53:49;7.40;;;6.60;;
50709;SDS011;37033;49.994;21.992;2022-09-13T02:56:46;9.70;;;6.80;;
50709;SDS011;37033;49.994;21.992;2022-09-13T02:59:41;8.40;;;6.20;;
50709;SDS011;37033;49.994;21.992;2022-09-13T03:02:33;7.40;;;6.10;;
50709;SDS011;37033;49.994;21.992;2022-09-13T03:05:25;7.30;;;6.40;;
50709;SDS011;37033;49.994;21.992;2022-09-13T03:08:15;6.60;;;5.90;;
50709;SDS011;37033;49.994;21.992;2022-09-13T03:11:09;6.20;;;5.60;;
50709;SDS011;37033;49.994;21.992;2022-09-13T03:14:14;6.20;;;5.60;;
50709;SDS011;37033;49.994;21.992;2022-09-13T03:17:16;6.80;;;6.00;;
50709;SDS011;37033;49.994;21.992;2022-09-13T03:20:22;8.50;;;5.90;;
50709;SDS011;37033;49.994;21.992;2022-09-13T03:23:25;9.30;;;6.60;;
50709;SDS011;37033;49.994;21.992;2022-09-13T03:26:33;8.70;;;6.70;;
50709;SDS011;37033;49.994;21.992;2022-09-13T03:29:31;6.60;;;5.90;;
50709;SDS011;37033;49.994;21.992;2022-09-13T03:32:30;6.80;;;5.90;;
50709;SDS011;37033;49.994;21.992;2022-09-13T03:35:28;10.20;;;6.50;;
50709;SDS011;37033;49.994;21.992;2022-09-13T03:38:25;9.20;;;6.30;;
50709;SDS011;37033;49.994;21.992;2022-09-13T03:41:21;8.20;;;6.40;;
50709;SDS011;37033;49.994;21.992;2022-09-13T03:44:14;7.40;;;5.60;;
50709;SDS011;37033;49.994;21.992;2022-09-13T03:47:09;7.80;;;6.30;;
50709;SDS011;37033;49.994;21.992;2022-09-13T03:50:03;7.20;;;5.90;;
50709;SDS011;37033;49.994;21.992;2022-09-13T03:52:59;9.50;;;6.00;;
50709;SDS011;37033;49.994;21.992;2022-09-13T03:55:53;6.20;;;5.60;;
50709;SDS011;37033;49.994;21.992;2022-09-13T03:58:43;6.60;;;6.00;;
50709;SDS011;37033;49.994;21.992;2022-09-13T04:01:35;14.20;;;10.20;;
50709;SDS011;37033;49.994;21.992;2022-09-13T04:04:25;8.70;;;5.90;;
50709;SDS011;37033;49.994;21.992;2022-09-13T04:07:17;6.60;;;5.90;;
50709;SDS011;37033;49.994;21.992;2022-09-13T04:10:09;8.20;;;5.90;;
50709;SDS011;37033;49.994;21.992;2022-09-13T04:13:00;9.00;;;5.60;;
50709;SDS011;37033;49.994;21.992;2022-09-13T04:15:51;6.50;;;5.80;;
50709;SDS011;37033;49.994;21.992;2022-09-13T04:18:41;6.80;;;5.90;;
50709;SDS011;37033;49.994;21.992;2022-09-13T04:21:32;6.00;;;5.40;;
50709;SDS011;37033;49.994;21.992;2022-09-13T04:24:24;7.40;;;6.10;;
50709;SDS011;37033;49.994;21.992;2022-09-13T04:27:15;6.90;;;6.20;;
50709;SDS011;37033;49.994;21.992;2022-09-13T04:30:07;8.70;;;6.00;;
50709;SDS011;37033;49.994;21.992;2022-09-13T04:32:58;7.00;;;6.30;;
50709;SDS011;37033;49.994;21.992;2022-09-13T04:35:50;9.50;;;6.90;;
50709;SDS011;37033;49.994;21.992;2022-09-13T04:41:33;9.30;;;6.70;;
50709;SDS011;37033;49.994;21.992;2022-09-13T04:44:23;6.30;;;5.70;;
50709;SDS011;37033;49.994;21.992;2022-09-13T04:47:13;8.90;;;6.40;;
50709;SDS011;37033;49.994;21.992;2022-09-13T04:50:04;6.10;;;5.40;;
50709;SDS011;37033;49.994;21.992;2022-09-13T04:52:55;8.00;;;6.10;;
50709;SDS011;37033;49.994;21.992;2022-09-13T04:55:45;9.80;;;6.10;;
50709;SDS011;37033;49.994;21.992;2022-09-13T04:58:36;7.70;;;6.90;;
50709;SDS011;37033;49.994;21.992;2022-09-13T05:01:26;7.90;;;6.80;;
50709;SDS011;37033;49.994;21.992;2022-09-13T05:04:17;9.90;;;7.00;;
50709;SDS011;37033;49.994;21.992;2022-09-13T05:07:07;10.90;;;7.40;;
50709;SDS011;37033;49.994;21.992;2022-09-13T05:09:58;12.10;;;8.00;;
50709;SDS011;37033;49.994;21.992;2022-09-13T05:12:48;8.80;;;7.90;;
50709;SDS011;37033;49.994;21.992;2022-09-13T05:15:39;10.80;;;7.70;;
50709;SDS011;37033;49.994;21.992;2022-09-13T05:18:30;8.10;;;7.30;;
50709;SDS011;37033;49.994;21.992;2022-09-13T05:21:21;10.20;;;7.60;;
50709;SDS011;37033;49.994;21.992;2022-09-13T05:24:13;13.90;;;7.40;;
50709;SDS011;37033;49.994;21.992;2022-09-13T05:27:04;10.30;;;6.90;;
50709;SDS011;37033;49.994;21.992;2022-09-13T05:29:54;9.20;;;6.50;;
50709;SDS011;37033;49.994;21.992;2022-09-13T05:32:44;7.50;;;6.20;;
50709;SDS011;37033;49.994;21.992;2022-09-13T05:35:38;9.30;;;6.20;;
50709;SDS011;37033;49.994;21.992;2022-09-13T05:38:29;7.90;;;5.80;;
50709;SDS011;37033;49.994;21.992;2022-09-13T05:41:20;10.90;;;6.30;;
50709;SDS011;37033;49.994;21.992;2022-09-13T05:44:10;12.60;;;5.30;;
50709;SDS011;37033;49.994;21.992;2022-09-13T05:47:01;5.30;;;4.80;;
50709;SDS011;37033;49.994;21.992;2022-09-13T05:49:51;8.30;;;5.80;;
50709;SDS011;37033;49.994;21.992;2022-09-13T05:52:42;9.60;;;5.60;;
50709;SDS011;37033;49.994;21.992;2022-09-13T05:55:33;8.20;;;5.70;;
50709;SDS011;37033;49.994;21.992;2022-09-13T05:58:23;8.80;;;6.40;;
50709;SDS011;37033;49.994;21.992;2022-09-13T06:01:14;8.50;;;5.60;;
50709;SDS011;37033;49.994;21.992;2022-09-13T06:04:05;10.40;;;6.10;;
50709;SDS011;37033;49.994;21.992;2022-09-13T06:06:55;10.80;;;5.80;;
50709;SDS011;37033;49.994;21.992;2022-09-13T06:09:46;7.00;;;4.90;;
50709;SDS011;37033;49.994;21.992;2022-09-13T06:12:36;9.60;;;5.40;;
50709;SDS011;37033;49.994;21.992;2022-09-13T06:15:27;10.00;;;4.30;;
50709;SDS011;37033;49.994;21.992;2022-09-13T06:18:17;11.20;;;5.00;;
50709;SDS011;37033;49.994;21.992;2022-09-13T06:21:09;11.70;;;5.10;;
50709;SDS011;37033;49.994;21.992;2022-09-13T06:24:04;7.20;;;4.90;;
50709;SDS011;37033;49.994;21.992;2022-09-13T06:26:56;5.40;;;4.70;;
50709;SDS011;37033;49.994;21.992;2022-09-13T06:29:46;6.80;;;4.80;;
50709;SDS011;37033;49.994;21.992;2022-09-13T06:32:37;6.60;;;4.50;;
50709;SDS011;37033;49.994;21.992;2022-09-13T06:35:27;6.00;;;4.20;;
50709;SDS011;37033;49.994;21.992;2022-09-13T06:38:17;9.60;;;4.70;;
50709;SDS011;37033;49.994;21.992;2022-09-13T06:41:08;6.80;;;4.10;;
50709;SDS011;37033;49.994;21.992;2022-09-13T06:44:00;8.50;;;4.20;;
50709;SDS011;37033;49.994;21.992;2022-09-13T06:46:51;5.30;;;4.10;;
50709;SDS011;37033;49.994;21.992;2022-09-13T06:49:41;9.40;;;4.50;;
50709;SDS011;37033;49.994;21.992;2022-09-13T06:52:32;7.00;;;3.90;;
50709;SDS011;37033;49.994;21.992;2022-09-13T06:55:23;9.00;;;4.00;;
50709;SDS011;37033;49.994;21.992;2022-09-13T06:58:13;6.80;;;4.10;;
50709;SDS011;37033;49.994;21.992;2022-09-13T07:01:11;6.80;;;4.50;;
50709;SDS011;37033;49.994;21.992;2022-09-13T07:04:04;4.20;;;3.80;;
50709;SDS011;37033;49.994;21.992;2022-09-13T07:06:55;5.40;;;4.10;;
50709;SDS011;37033;49.994;21.992;2022-09-13T07:09:47;6.50;;;4.50;;
50709;SDS011;37033;49.994;21.992;2022-09-13T07:12:38;6.30;;;3.90;;
50709;SDS011;37033;49.994;21.992;2022-09-13T07:15:30;5.80;;;3.90;;
50709;SDS011;37033;49.994;21.992;2022-09-13T07:18:23;5.10;;;3.40;;
50709;SDS011;37033;49.994;21.992;2022-09-13T07:21:14;4.60;;;3.70;;
50709;SDS011;37033;49.994;21.992;2022-09-13T07:24:05;4.80;;;3.80;;
50709;SDS011;37033;49.994;21.992;2022-09-13T07:26:56;4.60;;;4.00;;
50709;SDS011;37033;49.994;21.992;2022-09-13T07:29:46;7.20;;;4.40;;
50709;SDS011;37033;49.994;21.992;2022-09-13T07:32:36;7.40;;;4.00;;
50709;SDS011;37033;49.994;21.992;2022-09-13T07:35:28;6.00;;;3.70;;
50709;SDS011;37033;49.994;21.992;2022-09-13T07:38:18;6.70;;;3.70;;
50709;SDS011;37033;49.994;21.992;2022-09-13T07:41:10;4.70;;;4.10;;
50709;SDS011;37033;49.994;21.992;2022-09-13T07:44:02;6.80;;;4.40;;
50709;SDS011;37033;49.994;21.992;2022-09-13T07:46:53;4.80;;;3.50;;
50709;SDS011;37033;49.994;21.992;2022-09-13T07:49:44;4.90;;;4.00;;
50709;SDS011;37033;49.994;21.992;2022-09-13T07:52:34;6.30;;;4.00;;
50709;SDS011;37033;49.994;21.992;2022-09-13T07:55:26;5.40;;;2.90;;
50709;SDS011;37033;49.994;21.992;2022-09-13T07:58:17;3.50;;;2.80;;
50709;SDS011;37033;49.994;21.992;2022-09-13T08:01:08;3.70;;;2.70;;
50709;SDS011;37033;49.994;21.992;2022-09-13T08:04:02;4.90;;;2.30;;
50709;SDS011;37033;49.994;21.992;2022-09-13T08:06:54;3.30;;;2.60;;
50709;SDS011;37033;49.994;21.992;2022-09-13T08:09:44;3.10;;;2.50;;
50709;SDS011;37033;49.994;21.992;2022-09-13T08:12:34;3.80;;;2.90;;
50709;SDS011;37033;49.994;21.992;2022-09-13T08:15:25;5.10;;;2.90;;
50709;SDS011;37033;49.994;21.992;2022-09-13T08:18:15;5.30;;;3.20;;
50709;SDS011;37033;49.994;21.992;2022-09-13T08:21:06;4.60;;;2.70;;
50709;SDS011;37033;49.994;21.992;2022-09-13T08:23:56;3.10;;;2.30;;
50709;SDS011;37033;49.994;21.992;2022-09-13T08:26:47;3.20;;;2.10;;
50709;SDS011;37033;49.994;21.992;2022-09-13T08:29:39;4.10;;;1.90;;
50709;SDS011;37033;49.994;21.992;2022-09-13T08:32:29;3.30;;;2.10;;
50709;SDS011;37033;49.994;21.992;2022-09-13T08:35:19;1.70;;;1.50;;
50709;SDS011;37033;49.994;21.992;2022-09-13T08:38:09;4.40;;;1.80;;
50709;SDS011;37033;49.994;21.992;2022-09-13T08:41:01;2.70;;;1.40;;
50709;SDS011;37033;49.994;21.992;2022-09-13T08:44:07;4.00;;;2.10;;
50709;SDS011;37033;49.994;21.992;2022-09-13T08:47:18;5.10;;;1.90;;
50709;SDS011;37033;49.994;21.992;2022-09-13T08:50:19;6.40;;;1.80;;
50709;SDS011;37033;49.994;21.992;2022-09-13T08:53:16;3.90;;;1.60;;
50709;SDS011;37033;49.994;21.992;2022-09-13T08:56:11;4.60;;;1.60;;
50709;SDS011;37033;49.994;21.992;2022-09-13T08:59:11;2.30;;;1.70;;
50709;SDS011;37033;49.994;21.992;2022-09-13T09:02:14;7.70;;;1.90;;
50709;SDS011;37033;49.994;21.992;2022-09-13T09:05:17;3.80;;;1.20;;
50709;SDS011;37033;49.994;21.992;2022-09-13T09:08:10;3.00;;;1.40;;
50709;SDS011;37033;49.994;21.992;2022-09-13T09:11:09;1.60;;;1.40;;
50709;SDS011;37033;49.994;21.992;2022-09-13T09:14:06;7.80;;;1.30;;
50709;SDS011;37033;49.994;21.992;2022-09-13T09:17:03;3.30;;;1.30;;
50709;SDS011;37033;49.994;21.992;2022-09-13T09:19:57;3.30;;;1.70;;
50709;SDS011;37033;49.994;21.992;2022-09-13T09:22:57;3.00;;;1.50;;
50709;SDS011;37033;49.994;21.992;2022-09-13T09:25:51;1.80;;;1.50;;
50709;SDS011;37033;49.994;21.992;2022-09-13T09:28:49;2.20;;;1.50;;
50709;SDS011;37033;49.994;21.992;2022-09-13T09:31:43;2.40;;;1.40;;
50709;SDS011;37033;49.994;21.992;2022-09-13T09:34:44;5.10;;;1.50;;
50709;SDS011;37033;49.994;21.992;2022-09-13T09:37:44;5.00;;;1.40;;
50709;SDS011;37033;49.994;21.992;2022-09-13T09:40:43;3.90;;;1.60;;
50709;SDS011;37033;49.994;21.992;2022-09-13T09:43:36;2.90;;;1.20;;
50709;SDS011;37033;49.994;21.992;2022-09-13T09:46:32;2.20;;;1.10;;
50709;SDS011;37033;49.994;21.992;2022-09-13T09:49:26;1.80;;;1.40;;
50709;SDS011;37033;49.994;21.992;2022-09-13T09:52:42;3.90;;;1.70;;
50709;SDS011;37033;49.994;21.992;2022-09-13T09:55:38;3.00;;;1.60;;
50709;SDS011;37033;49.994;21.992;2022-09-13T09:58:37;1.50;;;1.30;;
50709;SDS011;37033;49.994;21.992;2022-09-13T10:01:28;2.00;;;1.50;;
50709;SDS011;37033;49.994;21.992;2022-09-13T10:04:20;2.10;;;1.40;;
50709;SDS011;37033;49.994;21.992;2022-09-13T10:07:17;1.80;;;1.60;;
50709;SDS011;37033;49.994;21.992;2022-09-13T10:10:22;2.10;;;1.60;;
50709;SDS011;37033;49.994;21.992;2022-09-13T10:13:17;2.80;;;1.50;;
50709;SDS011;37033;49.994;21.992;2022-09-13T10:16:20;2.80;;;1.80;;
50709;SDS011;37033;49.994;21.992;2022-09-13T10:19:24;4.50;;;1.70;;
50709;SDS011;37033;49.994;21.992;2022-09-13T10:22:15;2.00;;;1.70;;
50709;SDS011;37033;49.994;21.992;2022-09-13T10:25:13;2.70;;;2.30;;
50709;SDS011;37033;49.994;21.992;2022-09-13T10:28:12;3.80;;;1.70;;
50709;SDS011;37033;49.994;21.992;2022-09-13T10:31:05;1.70;;;1.60;;
50709;SDS011;37033;49.994;21.992;2022-09-13T10:33:59;2.90;;;2.10;;
50709;SDS011;37033;49.994;21.992;2022-09-13T10:36:54;5.00;;;2.10;;
50709;SDS011;37033;49.994;21.992;2022-09-13T10:39:52;2.80;;;1.70;;
50709;SDS011;37033;49.994;21.992;2022-09-13T10:42:51;2.00;;;1.80;;
50709;SDS011;37033;49.994;21.992;2022-09-13T10:45:44;2.60;;;2.00;;
50709;SDS011;37033;49.994;21.992;2022-09-13T10:48:45;2.70;;;1.70;;
50709;SDS011;37033;49.994;21.992;2022-09-13T10:51:42;3.60;;;2.20;;
50709;SDS011;37033;49.994;21.992;2022-09-13T10:54:32;5.20;;;2.10;;
50709;SDS011;37033;49.994;21.992;2022-09-13T10:57:34;2.50;;;1.90;;
50709;SDS011;37033;49.994;21.992;2022-09-13T11:00:27;4.80;;;2.30;;
50709;SDS011;37033;49.994;21.992;2022-09-13T11:03:25;3.20;;;2.30;;
50709;SDS011;37033;49.994;21.992;2022-09-13T11:06:29;6.40;;;3.20;;
50709;SDS011;37033;49.994;21.992;2022-09-13T11:09:26;2.90;;;2.30;;
50709;SDS011;37033;49.994;21.992;2022-09-13T11:12:23;8.00;;;2.70;;
50709;SDS011;37033;49.994;21.992;2022-09-13T11:15:25;3.00;;;2.30;;
50709;SDS011;37033;49.994;21.992;2022-09-13T11:18:32;2.50;;;2.30;;
50709;SDS011;37033;49.994;21.992;2022-09-13T11:21:36;2.50;;;2.30;;
50709;SDS011;37033;49.994;21.992;2022-09-13T11:24:46;4.40;;;2.30;;
50709;SDS011;37033;49.994;21.992;2022-09-13T11:27:49;3.60;;;2.10;;
50709;SDS011;37033;49.994;21.992;2022-09-13T11:30:50;2.00;;;1.80;;
50709;SDS011;37033;49.994;21.992;2022-09-13T11:34:03;2.50;;;2.00;;
50709;SDS011;37033;49.994;21.992;2022-09-13T11:37:12;4.10;;;1.80;;
50709;SDS011;37033;49.994;21.992;2022-09-13T11:40:33;4.60;;;2.00;;
50709;SDS011;37033;49.994;21.992;2022-09-13T11:43:32;2.50;;;1.40;;
50709;SDS011;37033;49.994;21.992;2022-09-13T11:46:34;5.20;;;2.10;;
50709;SDS011;37033;49.994;21.992;2022-09-13T11:49:44;3.00;;;1.90;;
50709;SDS011;37033;49.994;21.992;2022-09-13T11:52:55;6.60;;;2.00;;
50709;SDS011;37033;49.994;21.992;2022-09-13T11:55:58;3.40;;;2.00;;
50709;SDS011;37033;49.994;21.992;2022-09-13T11:58:52;6.00;;;2.20;;
50709;SDS011;37033;49.994;21.992;2022-09-13T12:01:48;3.80;;;1.90;;
50709;SDS011;37033;49.994;21.992;2022-09-13T12:04:44;2.50;;;2.00;;
50709;SDS011;37033;49.994;21.992;2022-09-13T12:07:40;3.50;;;1.90;;
50709;SDS011;37033;49.994;21.992;2022-09-13T12:10:36;2.90;;;1.70;;
50709;SDS011;37033;49.994;21.992;2022-09-13T12:13:34;2.10;;;1.90;;
50709;SDS011;37033;49.994;21.992;2022-09-13T12:16:29;11.40;;;3.20;;
50709;SDS011;37033;49.994;21.992;2022-09-13T12:19:22;3.10;;;2.30;;
50709;SDS011;37033;49.994;21.992;2022-09-13T12:22:18;3.00;;;2.20;;
50709;SDS011;37033;49.994;21.992;2022-09-13T12:25:17;5.90;;;2.20;;
50709;SDS011;37033;49.994;21.992;2022-09-13T12:28:12;4.30;;;2.30;;
50709;SDS011;37033;49.994;21.992;2022-09-13T12:31:10;4.50;;;2.10;;
50709;SDS011;37033;49.994;21.992;2022-09-13T12:34:06;1.70;;;1.40;;
50709;SDS011;37033;49.994;21.992;2022-09-13T12:40:33;3.20;;;2.40;;
50709;SDS011;37033;49.994;21.992;2022-09-13T12:43:48;3.10;;;1.70;;
50709;SDS011;37033;49.994;21.992;2022-09-13T12:47:13;2.20;;;1.20;;
50709;SDS011;37033;49.994;21.992;2022-09-13T12:50:15;4.10;;;1.20;;
50709;SDS011;37033;49.994;21.992;2022-09-13T12:56:59;2.80;;;1.60;;
50709;SDS011;37033;49.994;21.992;2022-09-13T13:00:15;3.50;;;1.80;;
50709;SDS011;37033;49.994;21.992;2022-09-13T13:03:13;4.60;;;3.30;;
50709;SDS011;37033;49.994;21.992;2022-09-13T13:06:10;2.10;;;1.90;;
50709;SDS011;37033;49.994;21.992;2022-09-13T13:09:22;4.80;;;2.10;;
50709;SDS011;37033;49.994;21.992;2022-09-13T13:12:25;2.20;;;2.00;;
50709;SDS011;37033;49.994;21.992;2022-09-13T13:21:35;3.60;;;1.90;;
50709;SDS011;37033;49.994;21.992;2022-09-13T13:24:45;3.30;;;2.00;;
50709;SDS011;37033;49.994;21.992;2022-09-13T13:27:40;7.10;;;2.00;;
50709;SDS011;37033;49.994;21.992;2022-09-13T13:33:47;3.10;;;1.80;;
50709;SDS011;37033;49.994;21.992;2022-09-13T13:36:43;5.90;;;1.90;;
50709;SDS011;37033;49.994;21.992;2022-09-13T13:39:39;2.10;;;1.70;;
50709;SDS011;37033;49.994;21.992;2022-09-13T13:42:30;3.50;;;1.90;;
50709;SDS011;37033;49.994;21.992;2022-09-13T13:45:25;2.20;;;1.80;;
50709;SDS011;37033;49.994;21.992;2022-09-13T13:48:15;6.20;;;2.20;;
50709;SDS011;37033;49.994;21.992;2022-09-13T13:51:25;2.00;;;1.90;;
50709;SDS011;37033;49.994;21.992;2022-09-13T13:54:29;2.80;;;2.00;;
50709;SDS011;37033;49.994;21.992;2022-09-13T13:57:41;3.40;;;2.40;;
50709;SDS011;37033;49.994;21.992;2022-09-13T14:00:48;2.50;;;2.30;;
50709;SDS011;37033;49.994;21.992;2022-09-13T14:03:50;3.90;;;2.40;;
50709;SDS011;37033;49.994;21.992;2022-09-13T14:06:52;2.60;;;2.40;;
50709;SDS011;37033;49.994;21.992;2022-09-13T14:09:51;6.50;;;2.50;;
50709;SDS011;37033;49.994;21.992;2022-09-13T14:12:51;2.70;;;2.10;;
50709;SDS011;37033;49.994;21.992;2022-09-13T14:15:58;2.90;;;2.50;;
50709;SDS011;37033;49.994;21.992;2022-09-13T14:19:03;4.00;;;2.70;;
50709;SDS011;37033;49.994;21.992;2022-09-13T14:22:13;3.00;;;2.70;;
50709;SDS011;37033;49.994;21.992;2022-09-13T14:25:20;5.00;;;2.50;;
50709;SDS011;37033;49.994;21.992;2022-09-13T14:28:15;7.70;;;3.50;;
50709;SDS011;37033;49.994;21.992;2022-09-13T14:31:13;15.10;;;3.40;;
50709;SDS011;37033;49.994;21.992;2022-09-13T14:34:16;7.90;;;2.60;;
50709;SDS011;37033;49.994;21.992;2022-09-13T14:37:16;3.90;;;2.40;;
50709;SDS011;37033;49.994;21.992;2022-09-13T14:40:10;4.40;;;2.40;;
50709;SDS011;37033;49.994;21.992;2022-09-13T14:43:17;4.90;;;2.80;;
50709;SDS011;37033;49.994;21.992;2022-09-13T14:46:10;3.40;;;3.10;;
50709;SDS011;37033;49.994;21.992;2022-09-13T14:49:05;3.50;;;2.70;;
50709;SDS011;37033;49.994;21.992;2022-09-13T14:52:02;3.50;;;2.10;;
50709;SDS011;37033;49.994;21.992;2022-09-13T14:54:55;6.70;;;2.90;;
50709;SDS011;37033;49.994;21.992;2022-09-13T14:57:51;4.70;;;3.70;;
50709;SDS011;37033;49.994;21.992;2022-09-13T15:00:47;4.10;;;3.40;;
50709;SDS011;37033;49.994;21.992;2022-09-13T15:03:41;2.70;;;2.50;;
50709;SDS011;37033;49.994;21.992;2022-09-13T15:06:33;5.10;;;3.00;;
50709;SDS011;37033;49.994;21.992;2022-09-13T15:09:26;5.20;;;3.00;;
50709;SDS011;37033;49.994;21.992;2022-09-13T15:12:26;5.10;;;3.70;;
50709;SDS011;37033;49.994;21.992;2022-09-13T15:15:24;7.20;;;3.70;;
50709;SDS011;37033;49.994;21.992;2022-09-13T15:18:24;7.60;;;3.40;;
50709;SDS011;37033;49.994;21.992;2022-09-13T15:21:17;5.10;;;3.80;;
50709;SDS011;37033;49.994;21.992;2022-09-13T15:24:14;8.80;;;3.90;;
50709;SDS011;37033;49.994;21.992;2022-09-13T15:27:15;9.60;;;3.80;;
50709;SDS011;37033;49.994;21.992;2022-09-13T15:30:19;7.90;;;3.60;;
50709;SDS011;37033;49.994;21.992;2022-09-13T15:33:17;3.40;;;3.10;;
50709;SDS011;37033;49.994;21.992;2022-09-13T15:36:24;4.90;;;3.20;;
50709;SDS011;37033;49.994;21.992;2022-09-13T15:39:16;7.00;;;3.50;;
50709;SDS011;37033;49.994;21.992;2022-09-13T15:42:08;18.10;;;11.60;;
50709;SDS011;37033;49.994;21.992;2022-09-13T15:44:58;15.80;;;5.20;;
50709;SDS011;37033;49.994;21.992;2022-09-13T15:47:50;8.10;;;4.60;;
50709;SDS011;37033;49.994;21.992;2022-09-13T15:50:41;4.90;;;3.80;;
50709;SDS011;37033;49.994;21.992;2022-09-13T15:53:50;4.20;;;3.80;;
50709;SDS011;37033;49.994;21.992;2022-09-13T15:56:41;6.10;;;5.20;;
50709;SDS011;37033;49.994;21.992;2022-09-13T15:59:34;5.70;;;5.10;;
50709;SDS011;37033;49.994;21.992;2022-09-13T16:02:25;7.20;;;5.70;;
50709;SDS011;37033;49.994;21.992;2022-09-13T16:05:18;6.70;;;6.10;;
50709;SDS011;37033;49.994;21.992;2022-09-13T16:08:09;11.10;;;5.90;;
50709;SDS011;37033;49.994;21.992;2022-09-13T16:11:00;8.00;;;5.60;;
50709;SDS011;37033;49.994;21.992;2022-09-13T16:13:51;6.40;;;5.00;;
50709;SDS011;37033;49.994;21.992;2022-09-13T16:16:41;5.40;;;4.20;;
50709;SDS011;37033;49.994;21.992;2022-09-13T16:19:32;5.20;;;4.60;;
50709;SDS011;37033;49.994;21.992;2022-09-13T16:22:23;5.60;;;4.60;;
50709;SDS011;37033;49.994;21.992;2022-09-13T16:25:13;5.40;;;4.60;;
50709;SDS011;37033;49.994;21.992;2022-09-13T16:28:06;6.20;;;4.40;;
50709;SDS011;37033;49.994;21.992;2022-09-13T16:31:00;4.20;;;3.80;;
50709;SDS011;37033;49.994;21.992;2022-09-13T16:33:51;6.20;;;4.10;;
50709;SDS011;37033;49.994;21.992;2022-09-13T16:36:42;6.70;;;4.30;;
50709;SDS011;37033;49.994;21.992;2022-09-13T16:39:33;5.20;;;4.20;;
50709;SDS011;37033;49.994;21.992;2022-09-13T16:42:23;5.60;;;5.10;;
50709;SDS011;37033;49.994;21.992;2022-09-13T16:45:14;6.20;;;5.00;;
50709;SDS011;37033;49.994;21.992;2022-09-13T16:48:05;5.70;;;5.00;;
50709;SDS011;37033;49.994;21.992;2022-09-13T16:50:57;5.40;;;5.00;;
50709;SDS011;37033;49.994;21.992;2022-09-13T16:53:51;5.90;;;4.70;;
50709;SDS011;37033;49.994;21.992;2022-09-13T16:56:42;5.20;;;4.70;;
50709;SDS011;37033;49.994;21.992;2022-09-13T16:59:33;8.00;;;5.20;;
50709;SDS011;37033;49.994;21.992;2022-09-13T17:02:23;7.70;;;5.20;;
50709;SDS011;37033;49.994;21.992;2022-09-13T17:05:13;7.70;;;6.90;;
50709;SDS011;37033;49.994;21.992;2022-09-13T17:08:04;15.90;;;10.30;;
50709;SDS011;37033;49.994;21.992;2022-09-13T17:10:55;33.10;;;15.90;;
50709;SDS011;37033;49.994;21.992;2022-09-13T17:13:45;46.00;;;18.70;;
50709;SDS011;37033;49.994;21.992;2022-09-13T17:16:36;41.50;;;20.30;;
50709;SDS011;37033;49.994;21.992;2022-09-13T17:19:29;31.20;;;16.70;;
50709;SDS011;37033;49.994;21.992;2022-09-13T17:22:20;23.70;;;11.80;;
50709;SDS011;37033;49.994;21.992;2022-09-13T17:25:10;13.10;;;8.10;;
50709;SDS011;37033;49.994;21.992;2022-09-13T17:28:02;7.60;;;6.60;;
50709;SDS011;37033;49.994;21.992;2022-09-13T17:30:52;8.30;;;6.90;;
50709;SDS011;37033;49.994;21.992;2022-09-13T17:33:42;7.60;;;6.80;;
50709;SDS011;37033;49.994;21.992;2022-09-13T17:36:33;7.90;;;6.20;;
50709;SDS011;37033;49.994;21.992;2022-09-13T17:39:24;8.40;;;7.30;;